Briefing drone pour Chambery (LFLB)

Rechercher une autre localisation

Conditions de vol :


Nous sommes le : Jeudi 29 septembre 2022
Il est 00:46 UTC (02:46 LT)

Lever de soleil : 05:05 UTC (07:05 LT)
Coucher de soleil : 17:47 UTC (19:47 LT)

Météo

L'essentiel des conditions de vol

VIGILANCE MÉTÉO FRANCE - Savoie (73)
Vigilance Jaune : Pluie-inondation
CARTE TEMSI
CARTES DES FRONTS
METAR de LFLB
LFLB 290030Z AUTO 18010KT 9999 FEW009/// BKN034/// BKN046/// ///CB 13/12 Q1001

Date d'émission: 29/09/2022
Heure d'émission: 00:30 UTC
Vent: 180° pour 10 KT (19 km/h)
Visibilité horizontale: > 10 km
Plafond :
- Peu de nuages à 900ft (274m)
- Nuages morcelés à 3400ft (1036m)
- Nuages morcelés à 4600ft (1402m)
Température: 13 °C
Point de rosée: 12 °C
Humidité: 94%
Pression (QNH): 1001 hPa
TAF de LFLB
LFLB 281900Z 2819/2915 CNL

Conditions prévues :

Heure d'émission : Bulletin éffectué le 28 à 19:00 UTC
Prévision : Valide du 28 a 19:00 UTC au 29 a 15:00 UTC
Nuages : à 0ft (0 m)
WEBCAM POUR CHAMBERY

Réglementation

Voler en sécurité

CARTES AERONAUTIQUE 1/500.000
CARTE AZBA (Reseau basse altitude)
CARTES VAC (LFLB)
SUP AIP




Chargement des AIP...
NOTAM (CHAMBERY + Terrain à proximité / FIR )




Chargement des NOTAMS...
CONTACT PREFECTURE 73


Avertissement : Les données mises à disposition sont indicatives. Oxygène Drone ne pourra être tenu responsable de dégâts causés aux biens et aux personnes.